Carnival Victory — 3FFL8 — position and weather

sailwx.info

Track history (hours):
 
Tides and Currents Weather Stations Pressure Air Temp Water Temp Dewpoint Dewpoint Depression Visibility Wind Speed Wind Dir Waves Ship Positions

Carnival Victory

Operator: Carnival Cruise Lines

Last reported at 2015-Mar-05 05:00 UTC. Time now 2015-Mar-05 06:40 UTC.
Position N 22°54' W 073°30'.

Type: Ship. MMSI: 355263000.

Wind from 090 at 21 knots

Waves 2.0 meters (7 feet), 6 second period

Barometer 1019.0 mb
Air temperature 23.0 ° C
Visibility: greater than 5.4 NM
Dewpoint 20.0 ° C
Water temperature 26.0 ° C

Date/timePositionNaut miles runAvg speedWind from/ knotsBaromVisibWave heightAir tempDewpointWater temp
2015-Mar-05 05:00N 22°54' W 073°30'195 4.9 090 / 211019.0 5.4 2.023.020.026.0
2015-Mar-03 13:00N 25°18' W 075°54'9717.4 080 / 191016.0 0.3 1.521.021.026.5
2015-Mar-03 07:26N 25°51' W 077°35'1617.3
2015-Mar-03 06:30N 25°57' W 077°52'1717.0
2015-Mar-03 05:29N 26°02' W 078°10'5216.9
2015-Mar-03 02:23N 26°17' W 079°06'1417.3
2015-Mar-03 01:33N 26°11' W 079°20'1918.6
2015-Mar-03 00:33N 26°01' W 079°38'1817.7
2015-Mar-02 23:33N 25°52' W 079°54'1413.7
2015-Mar-02 22:33N 25°46' W 080°08'2 2.0
2015-Mar-02 21:32N 25°47' W 080°10'0 0.0
2015-Mar-02 20:21N 25°47' W 080°10'0 0.0
2015-Mar-02 19:33N 25°47' W 080°10'0 0.0
2015-Mar-02 18:27N 25°47' W 080°10'0 0.0
2015-Mar-02 17:23N 25°47' W 080°10'0 0.0
2015-Mar-02 16:32N 25°47' W 080°10'0 0.0
2015-Mar-02 15:26N 25°47' W 080°10'0 0.0
2015-Mar-02 14:31N 25°47' W 080°10'0 0.0
2015-Mar-02 13:28N 25°47' W 080°10'0 0.0
2015-Mar-02 12:33N 25°47' W 080°10'2 1.8
2015-Mar-02 11:33N 25°46' W 080°08'8 8.4
2015-Mar-02 10:33N 25°43' W 079°59'1313.0
2015-Mar-02 09:33N 25°30' W 079°58'14416.8
2015-Mar-02 01:00N 23°42' W 081°42'19316.1 060 / 261019.0 5.4 2.025.022.026.0
2015-Mar-01 13:00N 22°24' W 084°54'16116.8 060 / 181015.0 1.1 1.523.023.027.4
2015-Mar-01 03:25N 20°33' W 086°60'4 1.0
2015-Feb-28 23:05N 20°29' W 086°59'0 0.0
2015-Feb-28 22:29N 20°29' W 086°59'0 0.0
2015-Feb-28 21:28N 20°29' W 086°59'0 0.0
2015-Feb-28 20:04N 20°29' W 086°59'0 0.0
2015-Feb-28 19:24N 20°29' W 086°59'0 0.0
2015-Feb-28 18:24N 20°29' W 086°59'2 2.6
2015-Feb-28 17:33N 20°31' W 086°60'7817.0
2015-Feb-28 13:00N 21°18' W 085°54'21618.0 070 / 201015.0 0.1 2.022.022.026.1
2015-Feb-28 01:00N 23°42' W 083°00'191 7.7 030 / 141015.0 5.4 1.521.018.025.0
2015-Feb-27 00:10N 25°23' W 080°02'812.9
2015-Feb-26 23:34N 25°31' W 080°01'1212.3
2015-Feb-26 22:33N 25°43' W 080°02'8 7.0
2015-Feb-26 21:22N 25°47' W 080°10'0 0.0
2015-Feb-26 20:33N 25°47' W 080°10'0 0.0
2015-Feb-26 19:24N 25°47' W 080°10'0 0.0
2015-Feb-26 18:32N 25°47' W 080°10'0 0.0
2015-Feb-26 17:29N 25°47' W 080°10'0 0.0
2015-Feb-26 16:31N 25°47' W 080°10'0 0.0
2015-Feb-26 15:28N 25°47' W 080°10'0 0.0
2015-Feb-26 14:22N 25°47' W 080°10'0 0.0
2015-Feb-26 13:33N 25°47' W 080°10'0 0.0
2015-Feb-26 12:24N 25°47' W 080°10'1 1.0
2015-Feb-26 11:33N 25°46' W 080°09'9 9.1
2015-Feb-26 10:33N 25°44' W 079°59'1010.0
2015-Feb-26 09:33N 25°34' W 079°57'27713.5
2015-Feb-25 13:00N 24°54' W 085°00'35429.5 180 / 181015.0 0.3 0.524.0 26.1
2015-Feb-25 01:00N 19°42' W 082°00'284 7.9 050 / 41015.0 5.4 1.026.023.026.0
2015-Feb-23 13:00N 18°42' W 077°06'   080 / 171018.0 5.4 1.532.029.026.0
Track history (hours):
 
Tides and Currents Weather Stations Pressure Air Temp Water Temp Dewpoint Dewpoint Depression Visibility Wind Speed Wind Dir Waves Ship Positions

Carnival Victory

Operator: Carnival Cruise Lines

Last reported at 2015-Mar-05 05:00 UTC. Time now 2015-Mar-05 06:40 UTC.
Position N 22°54' W 073°30'.

Type: Ship. MMSI: 355263000.

Wind from 090 at 21 knots

Waves 2.0 meters (7 feet), 6 second period

Barometer 1019.0 mb
Air temperature 23.0 ° C
Visibility: greater than 5.4 NM
Dewpoint 20.0 ° C
Water temperature 26.0 ° C

Date/timePositionNaut miles runAvg speedWind from/ knotsBaromVisibWave heightAir tempDewpointWater temp
2015-Mar-05 05:00N 22°54' W 073°30'195 4.9 090 / 211019.0 5.4 2.023.020.026.0
2015-Mar-03 13:00N 25°18' W 075°54'9717.4 080 / 191016.0 0.3 1.521.021.026.5
2015-Mar-03 07:26N 25°51' W 077°35'1617.3
2015-Mar-03 06:30N 25°57' W 077°52'1717.0
2015-Mar-03 05:29N 26°02' W 078°10'5216.9
2015-Mar-03 02:23N 26°17' W 079°06'1417.3
2015-Mar-03 01:33N 26°11' W 079°20'1918.6
2015-Mar-03 00:33N 26°01' W 079°38'1817.7
2015-Mar-02 23:33N 25°52' W 079°54'1413.7
2015-Mar-02 22:33N 25°46' W 080°08'2 2.0
2015-Mar-02 21:32N 25°47' W 080°10'0 0.0
2015-Mar-02 20:21N 25°47' W 080°10'0 0.0
2015-Mar-02 19:33N 25°47' W 080°10'0 0.0
2015-Mar-02 18:27N 25°47' W 080°10'0 0.0
2015-Mar-02 17:23N 25°47' W 080°10'0 0.0
2015-Mar-02 16:32N 25°47' W 080°10'0 0.0
2015-Mar-02 15:26N 25°47' W 080°10'0 0.0
2015-Mar-02 14:31N 25°47' W 080°10'0 0.0
2015-Mar-02 13:28N 25°47' W 080°10'0 0.0
2015-Mar-02 12:33N 25°47' W 080°10'2 1.8
2015-Mar-02 11:33N 25°46' W 080°08'8 8.4
2015-Mar-02 10:33N 25°43' W 079°59'1313.0
2015-Mar-02 09:33N 25°30' W 079°58'14416.8
2015-Mar-02 01:00N 23°42' W 081°42'19316.1 060 / 261019.0 5.4 2.025.022.026.0
2015-Mar-01 13:00N 22°24' W 084°54'16116.8 060 / 181015.0 1.1 1.523.023.027.4
2015-Mar-01 03:25N 20°33' W 086°60'4 1.0
2015-Feb-28 23:05N 20°29' W 086°59'0 0.0
2015-Feb-28 22:29N 20°29' W 086°59'0 0.0
2015-Feb-28 21:28N 20°29' W 086°59'0 0.0
2015-Feb-28 20:04N 20°29' W 086°59'0 0.0
2015-Feb-28 19:24N 20°29' W 086°59'0 0.0
2015-Feb-28 18:24N 20°29' W 086°59'2 2.6
2015-Feb-28 17:33N 20°31' W 086°60'7817.0
2015-Feb-28 13:00N 21°18' W 085°54'21618.0 070 / 201015.0 0.1 2.022.022.026.1
2015-Feb-28 01:00N 23°42' W 083°00'191 7.7 030 / 141015.0 5.4 1.521.018.025.0
2015-Feb-27 00:10N 25°23' W 080°02'812.9
2015-Feb-26 23:34N 25°31' W 080°01'1212.3
2015-Feb-26 22:33N 25°43' W 080°02'8 7.0
2015-Feb-26 21:22N 25°47' W 080°10'0 0.0
2015-Feb-26 20:33N 25°47' W 080°10'0 0.0
2015-Feb-26 19:24N 25°47' W 080°10'0 0.0
2015-Feb-26 18:32N 25°47' W 080°10'0 0.0
2015-Feb-26 17:29N 25°47' W 080°10'0 0.0
2015-Feb-26 16:31N 25°47' W 080°10'0 0.0
2015-Feb-26 15:28N 25°47' W 080°10'0 0.0
2015-Feb-26 14:22N 25°47' W 080°10'0 0.0
2015-Feb-26 13:33N 25°47' W 080°10'0 0.0
2015-Feb-26 12:24N 25°47' W 080°10'1 1.0
2015-Feb-26 11:33N 25°46' W 080°09'9 9.1
2015-Feb-26 10:33N 25°44' W 079°59'1010.0
2015-Feb-26 09:33N 25°34' W 079°57'27713.5
2015-Feb-25 13:00N 24°54' W 085°00'35429.5 180 / 181015.0 0.3 0.524.0 26.1
2015-Feb-25 01:00N 19°42' W 082°00'284 7.9 050 / 41015.0 5.4 1.026.023.026.0
2015-Feb-23 13:00N 18°42' W 077°06'   080 / 171018.0 5.4 1.532.029.026.0

Dump ship's entire track history